createdAt,value
2019-05-29T00:01:48.157Z,6.10
2019-05-29T00:04:22.277Z,6.30
2019-05-29T00:06:56.331Z,5.55
2019-05-29T00:12:03.929Z,5.45
2019-05-29T00:14:38.205Z,5.72
2019-05-29T00:17:12.527Z,5.62
2019-05-29T00:19:46.530Z,5.70
2019-05-29T00:22:20.419Z,5.70
2019-05-29T00:24:54.639Z,6.00
2019-05-29T00:27:28.544Z,5.55
2019-05-29T00:30:02.369Z,6.00
2019-05-29T00:32:36.779Z,5.60
2019-05-29T00:35:12.174Z,5.33
2019-05-29T00:37:46.171Z,5.75
2019-05-29T00:40:20.216Z,5.60
2019-05-29T00:45:27.069Z,5.20
2019-05-29T00:48:01.071Z,5.30
2019-05-29T00:53:10.090Z,4.70
2019-05-29T00:55:43.997Z,4.30
2019-05-29T00:58:19.725Z,4.50
2019-05-29T01:00:53.628Z,4.78
2019-05-29T01:03:27.464Z,4.33
2019-05-29T01:06:01.387Z,5.47
2019-05-29T01:08:35.172Z,4.47
2019-05-29T01:11:09.111Z,4.03
2019-05-29T01:13:43.059Z,5.72
2019-05-29T01:18:51.163Z,4.80
2019-05-29T01:21:24.957Z,4.00
2019-05-29T01:23:58.823Z,4.10
2019-05-29T01:26:32.727Z,4.10
2019-05-29T01:29:06.535Z,4.03
2019-05-29T01:31:40.453Z,4.22
2019-05-29T01:34:14.291Z,3.60
2019-05-29T01:36:48.371Z,3.58
2019-05-29T01:39:23.525Z,3.90
2019-05-29T01:41:57.539Z,3.27
2019-05-29T01:44:31.591Z,3.47
2019-05-29T01:49:38.450Z,3.40
2019-05-29T01:52:12.369Z,3.35
2019-05-29T01:54:46.281Z,3.60
2019-05-29T01:57:20.160Z,3.30
2019-05-29T01:59:53.973Z,3.35
2019-05-29T02:02:28.260Z,3.12
2019-05-29T02:05:02.315Z,2.90
2019-05-29T02:07:36.278Z,3.27
2019-05-29T02:12:43.332Z,3.17
2019-05-29T02:17:52.995Z,3.15
2019-05-29T02:20:27.207Z,2.87
2019-05-29T02:23:01.151Z,3.05
2019-05-29T02:25:35.001Z,2.80
2019-05-29T02:28:08.877Z,2.77
2019-05-29T02:30:42.789Z,2.60
2019-05-29T02:33:17.588Z,2.55
2019-05-29T02:35:51.653Z,2.75
2019-05-29T02:41:00.437Z,2.60
2019-05-29T02:43:34.269Z,2.70
2019-05-29T02:46:08.238Z,2.60
2019-05-29T02:48:42.067Z,2.62
2019-05-29T02:51:15.864Z,2.67
2019-05-29T02:53:49.684Z,2.40
2019-05-29T02:56:24.898Z,2.80
2019-05-29T02:58:58.855Z,2.30
2019-05-29T03:01:33.083Z,2.60
2019-05-29T03:04:07.138Z,2.85
2019-05-29T03:06:42.648Z,2.40
2019-05-29T03:09:17.895Z,2.45
2019-05-29T03:11:52.061Z,2.85
2019-05-29T03:14:27.257Z,2.30
2019-05-29T03:17:01.283Z,2.30
2019-05-29T03:19:35.198Z,2.15
2019-05-29T03:24:42.261Z,2.10
2019-05-29T03:27:16.178Z,2.50
2019-05-29T03:29:50.043Z,2.12
2019-05-29T03:32:23.946Z,2.27
2019-05-29T03:34:57.848Z,2.30
2019-05-29T03:37:32.470Z,2.10
2019-05-29T03:40:07.613Z,2.02
2019-05-29T03:42:41.716Z,2.20
2019-05-29T03:47:49.452Z,2.30
2019-05-29T03:52:56.540Z,2.00
2019-05-29T04:00:45.587Z,2.05
2019-05-29T04:03:13.948Z,1.90
2019-05-29T04:08:20.865Z,2.00
2019-05-29T04:10:54.696Z,2.02
2019-05-29T04:13:29.624Z,2.00
2019-05-29T04:16:04.189Z,2.10
2019-05-29T04:21:14.329Z,1.90
2019-05-29T04:23:49.855Z,1.92
2019-05-29T04:26:25.335Z,2.35
2019-05-29T04:28:59.379Z,2.02
2019-05-29T04:34:07.901Z,1.80
2019-05-29T04:36:41.658Z,1.80
2019-05-29T04:39:15.509Z,1.70
2019-05-29T04:41:49.457Z,1.98
2019-05-29T04:44:23.333Z,1.80
2019-05-29T04:47:10.122Z,1.72
2019-05-29T04:49:33.828Z,1.57
2019-05-29T04:52:08.355Z,1.50
2019-05-29T04:54:42.267Z,1.67
2019-05-29T04:57:16.214Z,1.30
2019-05-29T04:59:50.122Z,1.55
2019-05-29T05:02:24.165Z,1.52
2019-05-29T05:04:58.260Z,1.35
2019-05-29T05:07:33.206Z,1.47
2019-05-29T05:10:07.900Z,1.65
2019-05-29T05:12:42.167Z,1.50
2019-05-29T05:15:16.362Z,1.60
2019-05-29T05:17:50.217Z,1.50
2019-05-29T05:20:24.112Z,1.30
2019-05-29T05:25:32.148Z,1.70
2019-05-29T05:28:07.023Z,1.90
2019-05-29T05:30:41.004Z,1.70
2019-05-29T05:35:48.159Z,1.80
2019-05-29T05:38:22.063Z,2.10
2019-05-29T05:43:29.118Z,3.37
2019-05-29T05:46:03.127Z,3.05
2019-05-29T05:51:11.160Z,3.77
2019-05-29T05:56:18.027Z,4.15
2019-05-29T05:58:52.018Z,5.50
2019-05-29T06:01:25.896Z,2.30
2019-05-29T06:06:33.915Z,5.22
2019-05-29T06:09:08.747Z,3.10
2019-05-29T06:11:42.803Z,4.05
2019-05-29T06:14:16.630Z,3.12
2019-05-29T06:19:23.960Z,3.90
2019-05-29T06:21:57.793Z,2.22
2019-05-29T06:27:04.745Z,3.95
2019-05-29T06:29:39.353Z,6.90
2019-05-29T06:32:13.461Z,1.82
2019-05-29T06:37:20.680Z,1.10
2019-05-29T06:42:27.608Z,8.58
2019-05-29T06:47:36.478Z,1.62
2019-05-29T06:50:10.712Z,1.35
2019-05-29T06:52:44.722Z,1.30
2019-05-29T06:55:18.728Z,1.40
2019-05-29T06:57:52.582Z,5.12
2019-05-29T07:03:01.131Z,1.05
2019-05-29T07:05:35.557Z,1.05
2019-05-29T07:08:19.036Z,3.90
2019-05-29T07:10:45.075Z,7.47
2019-05-29T07:15:51.972Z,1.35
2019-05-29T07:18:25.765Z,3.85
2019-05-29T07:23:32.804Z,0.80
2019-05-29T07:26:06.847Z,0.90
2019-05-29T07:28:58.937Z,0.90
2019-05-29T07:31:16.262Z,0.70
2019-05-29T07:36:23.447Z,0.90
2019-05-29T07:39:03.367Z,0.90
2019-05-29T07:41:32.855Z,0.98
2019-05-29T07:44:06.851Z,1.00
2019-05-29T07:46:42.156Z,1.15
2019-05-29T07:49:16.265Z,1.10
2019-05-29T07:51:50.122Z,1.10
2019-05-29T07:54:24.043Z,0.78
2019-05-29T07:56:57.915Z,0.93
2019-05-29T07:59:31.901Z,1.90
2019-05-29T08:02:05.837Z,1.10
2019-05-29T08:04:40.895Z,1.30
2019-05-29T08:07:14.945Z,1.30
2019-05-29T08:09:49.807Z,0.90
2019-05-29T08:12:24.008Z,1.10
2019-05-29T08:14:57.939Z,1.00
2019-05-29T08:17:32.018Z,0.90
2019-05-29T08:20:09.424Z,1.10
2019-05-29T08:22:44.433Z,1.20
2019-05-29T08:25:19.123Z,1.10
2019-05-29T08:27:53.064Z,0.93
2019-05-29T08:30:27.102Z,1.15
2019-05-29T08:33:01.099Z,1.00
2019-05-29T08:35:35.121Z,1.00
2019-05-29T08:38:08.943Z,1.47
2019-05-29T08:40:43.027Z,1.50
2019-05-29T08:43:16.987Z,1.00
2019-05-29T08:45:52.679Z,1.17
2019-05-29T08:48:26.659Z,1.00
2019-05-29T08:51:00.664Z,1.12
2019-05-29T08:53:34.686Z,1.20
2019-05-29T08:56:08.587Z,1.00
2019-05-29T08:58:42.916Z,0.95
2019-05-29T09:01:16.912Z,0.90
2019-05-29T09:03:51.342Z,1.00
2019-05-29T09:06:25.489Z,1.10
2019-05-29T09:08:59.310Z,2.05
2019-05-29T09:11:33.156Z,2.25
2019-05-29T09:14:06.974Z,1.00
2019-05-29T09:16:40.831Z,1.00
2019-05-29T09:19:14.678Z,1.10
2019-05-29T09:21:48.486Z,0.93
2019-05-29T09:24:23.071Z,0.98
2019-05-29T09:26:57.043Z,1.30
2019-05-29T09:29:30.813Z,1.20
2019-05-29T09:32:04.929Z,1.10
2019-05-29T09:34:38.762Z,1.40
2019-05-29T09:37:12.714Z,1.47
2019-05-29T09:39:46.632Z,0.80
2019-05-29T09:42:21.935Z,1.10
2019-05-29T09:44:56.240Z,1.20
2019-05-29T09:47:30.103Z,1.20
2019-05-29T09:50:06.055Z,1.20
2019-05-29T09:52:40.001Z,0.85
2019-05-29T09:55:14.156Z,1.10
2019-05-29T09:57:48.325Z,1.17
2019-05-29T10:00:22.592Z,1.00
2019-05-29T10:02:57.226Z,0.90
2019-05-29T10:05:31.269Z,1.40
2019-05-29T10:08:05.317Z,1.00
2019-05-29T10:10:39.130Z,1.67
2019-05-29T10:13:13.125Z,0.95
2019-05-29T10:15:47.056Z,1.10
2019-05-29T10:18:31.878Z,1.17
2019-05-29T10:20:58.100Z,1.10
2019-05-29T10:23:32.910Z,1.00
2019-05-29T10:26:06.996Z,0.88
2019-05-29T10:28:56.065Z,1.40
2019-05-29T10:31:16.637Z,1.35
2019-05-29T10:33:50.496Z,1.05
2019-05-29T10:36:24.464Z,1.10
2019-05-29T10:38:58.411Z,1.37
2019-05-29T10:44:05.721Z,1.27
2019-05-29T10:46:39.507Z,1.07
2019-05-29T10:49:13.538Z,1.20
2019-05-29T10:56:55.458Z,1.10
2019-05-29T11:02:03.010Z,1.25
2019-05-29T11:04:37.140Z,1.30
2019-05-29T11:07:11.182Z,1.10
2019-05-29T11:14:53.119Z,1.25
2019-05-29T11:20:02.256Z,1.10
2019-05-29T11:22:36.345Z,1.10
2019-05-29T11:27:46.532Z,1.22
2019-05-29T11:30:20.898Z,1.17
2019-05-29T11:32:56.592Z,0.90
2019-05-29T11:35:30.542Z,1.27
2019-05-29T11:38:04.987Z,1.35
2019-05-29T11:40:39.384Z,0.82
2019-05-29T11:43:13.878Z,1.00
2019-05-29T11:45:47.964Z,1.00
2019-05-29T11:50:56.179Z,1.00
2019-05-29T11:53:30.690Z,1.02
2019-05-29T11:56:05.170Z,1.20
2019-05-29T11:58:39.341Z,1.10
2019-05-29T12:01:13.691Z,1.05
2019-05-29T12:04:15.709Z,1.00
2019-05-29T12:06:23.242Z,1.32
2019-05-29T12:08:57.926Z,1.25
2019-05-29T12:11:32.083Z,0.93
2019-05-29T12:14:06.707Z,1.00
2019-05-29T12:16:40.563Z,0.90
2019-05-29T12:19:14.549Z,1.45
2019-05-29T12:24:23.020Z,1.00
2019-05-29T12:26:57.006Z,1.20
2019-05-29T12:29:30.962Z,0.90
2019-05-29T12:32:09.807Z,1.17
2019-05-29T12:34:52.775Z,1.10
2019-05-29T12:37:16.250Z,1.40
2019-05-29T12:39:50.296Z,1.30
2019-05-29T12:44:57.639Z,1.32
2019-05-29T12:47:31.839Z,1.57
2019-05-29T12:52:40.697Z,1.40
2019-05-29T12:55:16.132Z,1.32
2019-05-29T12:57:50.131Z,1.15
2019-05-29T13:00:24.961Z,1.10
2019-05-29T13:03:00.611Z,1.20
2019-05-29T13:05:34.725Z,1.17
2019-05-29T13:08:08.791Z,1.35
2019-05-29T13:13:17.149Z,1.30
2019-05-29T13:15:51.565Z,1.20
2019-05-29T13:18:25.680Z,1.10
2019-05-29T13:21:15.229Z,1.20
2019-05-29T13:23:49.061Z,1.20
2019-05-29T13:26:23.239Z,1.10
2019-05-29T13:31:31.764Z,1.45
2019-05-29T13:36:45.059Z,1.22
2019-05-29T13:41:52.260Z,1.00
2019-05-29T13:44:26.320Z,1.00
2019-05-29T13:49:33.996Z,1.20
2019-05-29T13:52:12.351Z,1.37
2019-05-29T13:54:44.979Z,0.98
2019-05-29T13:57:18.819Z,1.40
2019-05-29T13:59:53.011Z,1.40
2019-05-29T14:02:26.970Z,1.15
2019-05-29T14:05:02.636Z,1.75
2019-05-29T14:07:36.884Z,1.40
2019-05-29T14:10:12.568Z,1.32
2019-05-29T14:12:46.590Z,0.90
2019-05-29T14:15:20.801Z,1.22
2019-05-29T14:17:54.939Z,1.42
2019-05-29T14:23:03.355Z,1.20
2019-05-29T14:25:37.585Z,1.30
2019-05-29T14:30:48.868Z,1.30
2019-05-29T14:33:21.720Z,1.85
2019-05-29T14:35:55.566Z,1.47
2019-05-29T14:38:29.745Z,1.70
2019-05-29T14:43:37.918Z,2.45
2019-05-29T14:46:12.209Z,1.37
2019-05-29T14:48:47.649Z,1.60
2019-05-29T14:51:21.822Z,1.20
2019-05-29T14:53:56.059Z,1.20
2019-05-29T14:56:30.158Z,1.60
2019-05-29T15:04:14.163Z,1.20
2019-05-29T15:06:47.786Z,1.22
2019-05-29T15:09:21.754Z,1.15
2019-05-29T15:11:58.760Z,1.32
2019-05-29T15:14:32.785Z,1.40
2019-05-29T15:17:10.964Z,1.10
2019-05-29T15:19:45.350Z,1.17
2019-05-29T15:22:19.196Z,1.30
2019-05-29T15:25:04.395Z,1.05
2019-05-29T15:27:28.824Z,1.27
2019-05-29T15:30:02.866Z,1.50
2019-05-29T15:35:14.370Z,1.32
2019-05-29T15:37:46.446Z,1.35
2019-05-29T15:40:20.613Z,2.02
2019-05-29T15:42:54.693Z,2.00
2019-05-29T15:48:02.380Z,1.50
2019-05-29T15:50:36.730Z,1.62
2019-05-29T15:53:11.011Z,2.40
2019-05-29T15:55:45.173Z,2.33
2019-05-29T16:00:52.362Z,1.35
2019-05-29T16:03:27.681Z,1.75
2019-05-29T16:06:02.226Z,2.20
2019-05-29T16:08:37.028Z,1.77
2019-05-29T16:11:12.597Z,3.10
2019-05-29T16:13:46.906Z,1.90
2019-05-29T16:16:20.749Z,1.32
2019-05-29T16:18:54.654Z,1.60
2019-05-29T16:21:28.418Z,3.22
2019-05-29T16:24:02.184Z,2.90
2019-05-29T16:26:36.036Z,1.20
2019-05-29T16:29:12.303Z,1.02
2019-05-29T16:31:46.497Z,1.15
2019-05-29T16:34:21.496Z,1.30
2019-05-29T16:36:55.888Z,1.15
2019-05-29T16:39:29.909Z,1.30
2019-05-29T16:44:36.908Z,1.45
2019-05-29T16:47:12.168Z,1.00
2019-05-29T16:49:46.296Z,3.08
2019-05-29T16:52:20.786Z,1.65
2019-05-29T16:54:54.667Z,1.45
2019-05-29T16:57:28.607Z,1.20
2019-05-29T17:00:02.543Z,1.70
2019-05-29T17:02:39.127Z,1.52
2019-05-29T17:05:13.736Z,2.30
2019-05-29T17:07:47.695Z,2.62
2019-05-29T17:10:24.674Z,5.05
2019-05-29T17:12:58.522Z,1.40
2019-05-29T17:15:32.561Z,1.10
2019-05-29T17:18:06.785Z,1.30
2019-05-29T17:20:45.640Z,1.45
2019-05-29T17:23:20.811Z,1.10
2019-05-29T17:26:09.600Z,1.00
2019-05-29T17:28:31.686Z,2.45
2019-05-29T17:31:05.507Z,2.20
2019-05-29T17:33:39.341Z,2.08
2019-05-29T17:36:13.131Z,2.00
2019-05-29T17:38:46.991Z,1.85
2019-05-29T17:41:21.166Z,1.60
2019-05-29T17:46:28.250Z,4.37
2019-05-29T17:51:35.486Z,2.45
2019-05-29T17:56:42.479Z,2.83
2019-05-29T17:59:16.290Z,2.80
2019-05-29T18:01:50.218Z,1.72
2019-05-29T18:04:24.930Z,2.72
2019-05-29T18:06:58.982Z,2.50
2019-05-29T18:09:33.096Z,1.90
2019-05-29T18:17:15.712Z,2.25
2019-05-29T18:19:50.033Z,3.83
2019-05-29T18:22:25.743Z,13.75
2019-05-29T18:25:00.129Z,4.40
2019-05-29T18:27:34.249Z,3.50
2019-05-29T18:32:46.980Z,3.22
2019-05-29T18:35:22.901Z,3.90
2019-05-29T18:37:57.484Z,4.10
2019-05-29T18:40:32.553Z,3.35
2019-05-29T18:43:06.862Z,16.75
2019-05-29T18:48:13.963Z,3.90
2019-05-29T18:50:47.904Z,9.45
2019-05-29T18:53:22.742Z,4.50
2019-05-29T18:55:57.061Z,7.92
2019-05-29T19:01:05.184Z,11.93
2019-05-29T19:03:40.501Z,13.50
2019-05-29T19:06:14.616Z,11.80
2019-05-29T19:08:49.082Z,9.10
2019-05-29T19:11:23.815Z,9.50
2019-05-29T19:13:58.034Z,7.78
2019-05-29T19:16:32.257Z,5.72
2019-05-29T19:19:06.831Z,7.45
2019-05-29T19:21:40.738Z,8.65
2019-05-29T19:24:14.974Z,8.28
2019-05-29T19:26:48.883Z,9.05
2019-05-29T19:29:23.033Z,6.97
2019-05-29T19:31:57.126Z,6.50
2019-05-29T19:37:05.687Z,5.78
2019-05-29T19:39:39.565Z,7.30
2019-05-29T19:42:13.507Z,6.00
2019-05-29T19:44:47.498Z,5.90
2019-05-29T19:49:54.439Z,4.80
2019-05-29T19:52:33.285Z,5.55
2019-05-29T19:55:07.976Z,5.25
2019-05-29T19:57:55.126Z,4.72
2019-05-29T20:00:17.867Z,4.92
2019-05-29T20:02:52.327Z,5.50
2019-05-29T20:05:26.783Z,5.30
2019-05-29T20:08:01.374Z,5.25
2019-05-29T20:10:35.996Z,4.85
2019-05-29T20:13:09.980Z,5.70
2019-05-29T20:18:17.399Z,5.00
2019-05-29T20:23:24.582Z,4.25
2019-05-29T20:25:58.844Z,4.47
2019-05-29T20:28:32.631Z,4.90
2019-05-29T20:31:06.585Z,5.62
2019-05-29T20:36:12.952Z,6.53
2019-05-29T20:38:47.022Z,10.10
2019-05-29T20:43:54.180Z,7.47
2019-05-29T20:49:01.845Z,7.30
2019-05-29T20:51:38.266Z,7.35
2019-05-29T20:54:12.276Z,7.15
2019-05-29T20:56:46.346Z,7.22
2019-05-29T21:01:54.066Z,6.58
2019-05-29T21:04:28.068Z,6.60
2019-05-29T21:09:35.409Z,7.08
2019-05-29T21:14:43.427Z,6.90
2019-05-29T21:17:18.334Z,7.55
2019-05-29T21:19:52.493Z,7.87
2019-05-29T21:22:26.347Z,7.78
2019-05-29T21:25:06.243Z,6.78
2019-05-29T21:27:37.110Z,7.10
2019-05-29T21:30:12.179Z,5.90
2019-05-29T21:32:46.524Z,5.97
2019-05-29T21:35:20.626Z,5.50
2019-05-29T21:37:54.738Z,9.23
2019-05-29T21:40:28.698Z,6.97
2019-05-29T21:45:36.781Z,6.47
2019-05-29T21:48:10.826Z,6.30
2019-05-29T21:50:45.431Z,6.20
2019-05-29T21:53:19.555Z,6.33
2019-05-29T21:58:28.406Z,5.80
2019-05-29T22:01:02.826Z,9.05
2019-05-29T22:03:38.317Z,8.98
2019-05-29T22:06:12.632Z,6.90
2019-05-29T22:08:46.458Z,5.25
2019-05-29T22:11:20.403Z,5.00
2019-05-29T22:16:28.524Z,5.08
2019-05-29T22:24:13.135Z,5.65
2019-05-29T22:26:46.996Z,8.48
2019-05-29T22:29:20.897Z,12.15
2019-05-29T22:34:29.365Z,10.40
2019-05-29T22:37:03.226Z,10.38
2019-05-29T22:39:37.314Z,8.48
2019-05-29T22:42:11.275Z,7.55
2019-05-29T22:47:19.619Z,6.90
2019-05-29T22:49:53.986Z,6.12
2019-05-29T22:52:27.984Z,6.65
2019-05-29T22:55:02.381Z,7.40
2019-05-29T22:57:36.371Z,6.35
2019-05-29T23:00:11.910Z,5.65
2019-05-29T23:02:45.785Z,5.67
2019-05-29T23:05:19.622Z,5.22
2019-05-29T23:07:54.139Z,5.47
2019-05-29T23:10:28.223Z,5.22
2019-05-29T23:18:09.791Z,5.50
2019-05-29T23:20:43.708Z,5.25
2019-05-29T23:23:17.761Z,5.40
2019-05-29T23:25:52.533Z,5.65
2019-05-29T23:28:26.478Z,5.05
2019-05-29T23:31:01.021Z,5.15
2019-05-29T23:33:34.905Z,5.47
2019-05-29T23:36:08.856Z,4.80
2019-05-29T23:41:15.917Z,4.85
2019-05-29T23:46:22.998Z,4.80
2019-05-29T23:51:31.434Z,5.20
2019-05-29T23:54:05.482Z,4.30
2019-05-29T23:59:12.410Z,4.70
